createdAt,value
2023-03-18T00:01:28.320Z,42.61
2023-03-18T00:03:59.750Z,43.78
2023-03-18T00:06:27.174Z,42.77
2023-03-18T00:08:53.806Z,42.51
2023-03-18T00:11:21.627Z,44.01
2023-03-18T00:13:50.759Z,44.77
2023-03-18T00:16:21.294Z,43.90
2023-03-18T00:18:50.010Z,43.89
2023-03-18T00:21:19.101Z,45.24
2023-03-18T00:23:46.432Z,44.12
2023-03-18T00:26:12.999Z,43.57
2023-03-18T00:28:41.451Z,44.14
2023-03-18T00:31:11.619Z,44.30
2023-03-18T00:33:43.716Z,44.14
2023-03-18T00:36:10.673Z,43.98
2023-03-18T00:38:37.355Z,43.69
2023-03-18T00:41:16.441Z,43.51
2023-03-18T00:43:47.310Z,43.58
2023-03-18T00:46:16.385Z,43.40
2023-03-18T00:48:45.325Z,43.04
2023-03-18T00:51:17.334Z,43.25
2023-03-18T00:53:47.452Z,43.66
2023-03-18T00:56:14.804Z,43.55
2023-03-18T00:58:41.853Z,43.30
2023-03-18T01:01:08.888Z,43.38
2023-03-18T01:03:38.078Z,43.45
2023-03-18T01:06:04.872Z,43.91
2023-03-18T01:08:33.849Z,43.72
2023-03-18T01:11:00.499Z,43.83
2023-03-18T01:13:27.067Z,43.43
2023-03-18T01:15:56.787Z,43.28
2023-03-18T01:18:23.803Z,43.33
2023-03-18T01:20:50.619Z,43.47
2023-03-18T01:23:22.772Z,43.59
2023-03-18T01:25:49.369Z,42.91
2023-03-18T01:28:23.335Z,43.44
2023-03-18T01:30:53.198Z,43.35
2023-03-18T01:33:22.252Z,42.93
2023-03-18T01:35:54.600Z,42.99
2023-03-18T01:38:24.148Z,43.04
2023-03-18T01:40:51.276Z,42.56
2023-03-18T01:43:23.947Z,43.45
2023-03-18T01:45:53.614Z,43.30
2023-03-18T01:48:21.163Z,43.25
2023-03-18T01:50:51.712Z,42.81
2023-03-18T01:53:21.649Z,43.45
2023-03-18T01:55:53.739Z,43.01
2023-03-18T01:58:29.353Z,42.97
2023-03-18T02:01:00.968Z,42.64
2023-03-18T02:03:34.431Z,43.28
2023-03-18T02:06:04.916Z,42.91
2023-03-18T02:08:31.488Z,42.95
2023-03-18T02:11:00.200Z,42.83
2023-03-18T02:13:31.798Z,43.12
2023-03-18T02:16:24.220Z,43.09
2023-03-18T02:18:52.249Z,42.92
2023-03-18T02:21:39.716Z,42.76
2023-03-18T02:24:06.367Z,42.95
2023-03-18T02:26:55.921Z,43.32
2023-03-18T02:29:29.573Z,43.66
2023-03-18T02:32:10.978Z,43.56
2023-03-18T02:34:40.864Z,45.49
2023-03-18T02:37:13.175Z,44.90
2023-03-18T02:39:44.625Z,45.34
2023-03-18T02:42:15.248Z,43.98
2023-03-18T02:44:49.052Z,44.45
2023-03-18T02:47:38.888Z,45.11
2023-03-18T02:50:05.612Z,44.23
2023-03-18T02:52:39.003Z,44.58
2023-03-18T02:55:07.218Z,44.64
2023-03-18T02:57:38.050Z,44.21
2023-03-18T03:00:09.320Z,44.20
2023-03-18T03:02:38.860Z,44.22
2023-03-18T03:05:09.424Z,44.44
2023-03-18T03:07:39.198Z,43.67
2023-03-18T03:10:08.848Z,43.80
2023-03-18T03:12:38.145Z,44.06
2023-03-18T03:15:10.896Z,43.83
2023-03-18T03:17:46.343Z,43.67
2023-03-18T03:20:13.954Z,43.87
2023-03-18T03:22:40.592Z,43.88
2023-03-18T03:25:09.801Z,43.74
2023-03-18T03:27:38.090Z,43.76
2023-03-18T03:30:10.422Z,43.19
2023-03-18T03:32:37.214Z,43.21
2023-03-18T03:35:05.473Z,42.81
2023-03-18T03:37:32.051Z,42.95
2023-03-18T03:40:00.096Z,43.18
2023-03-18T03:42:34.715Z,43.94
2023-03-18T03:45:04.128Z,43.26
2023-03-18T03:47:37.892Z,43.50
2023-03-18T03:50:06.453Z,43.74
2023-03-18T03:52:33.562Z,43.68
2023-03-18T03:55:02.837Z,43.64
2023-03-18T03:57:31.955Z,43.89
2023-03-18T03:59:58.627Z,43.80
2023-03-18T04:02:44.963Z,43.94
2023-03-18T04:05:16.998Z,44.10
2023-03-18T04:07:44.030Z,44.74
2023-03-18T04:10:12.118Z,45.01
2023-03-18T04:12:41.226Z,44.95
2023-03-18T04:15:08.270Z,45.49
2023-03-18T04:17:35.977Z,45.45
2023-03-18T04:20:05.363Z,46.08
2023-03-18T04:22:33.208Z,45.71
2023-03-18T04:25:05.065Z,45.44
2023-03-18T04:27:34.475Z,44.98
2023-03-18T04:30:08.819Z,45.20
2023-03-18T04:32:50.061Z,44.95
2023-03-18T04:35:17.294Z,45.47
2023-03-18T04:37:46.805Z,45.11
2023-03-18T04:40:15.924Z,44.94
2023-03-18T04:42:43.252Z,45.06
2023-03-18T04:45:10.819Z,45.30
2023-03-18T04:47:38.843Z,46.43
2023-03-18T04:50:06.270Z,45.84
2023-03-18T04:52:33.697Z,45.93
2023-03-18T04:55:00.821Z,45.51
2023-03-18T04:57:28.785Z,45.61
2023-03-18T04:59:57.110Z,46.20
2023-03-18T05:02:25.464Z,45.92
2023-03-18T05:04:52.478Z,46.23
2023-03-18T05:07:20.537Z,46.11
2023-03-18T05:09:57.753Z,47.18
2023-03-18T05:12:27.820Z,47.38
2023-03-18T05:14:54.551Z,46.71
2023-03-18T05:17:24.576Z,46.58
2023-03-18T05:19:58.146Z,47.14
2023-03-18T05:22:25.069Z,46.91
2023-03-18T05:24:58.787Z,46.85
2023-03-18T05:27:28.633Z,46.83
2023-03-18T05:30:08.749Z,46.56
2023-03-18T05:32:42.791Z,46.21
2023-03-18T05:35:11.073Z,45.97
2023-03-18T05:37:52.407Z,45.82
2023-03-18T05:40:20.505Z,45.49
2023-03-18T05:43:03.319Z,45.26
2023-03-18T05:45:41.412Z,45.08
2023-03-18T05:48:11.804Z,44.47
2023-03-18T05:50:50.683Z,44.52
2023-03-18T05:53:21.441Z,44.57
2023-03-18T05:55:53.600Z,44.51
2023-03-18T05:58:21.348Z,44.17
2023-03-18T06:00:56.455Z,44.33
2023-03-18T06:03:27.033Z,44.02
2023-03-18T06:05:55.068Z,43.88
2023-03-18T06:08:23.174Z,43.59
2023-03-18T06:10:50.019Z,43.39
2023-03-18T06:13:16.810Z,43.28
2023-03-18T06:15:48.747Z,43.37
2023-03-18T06:18:20.758Z,43.05
2023-03-18T06:20:49.974Z,43.03
2023-03-18T06:23:22.630Z,42.85
2023-03-18T06:25:52.692Z,42.64
2023-03-18T06:28:26.530Z,42.90
2023-03-18T06:30:57.781Z,42.55
2023-03-18T06:33:25.872Z,42.50
2023-03-18T06:35:56.582Z,42.51
2023-03-18T06:38:27.291Z,42.34
2023-03-18T06:40:56.980Z,42.17
2023-03-18T06:43:23.903Z,42.24
2023-03-18T06:45:52.709Z,42.65
2023-03-18T06:48:22.556Z,42.39
2023-03-18T06:50:51.233Z,42.55
2023-03-18T06:53:23.030Z,42.47
2023-03-18T06:55:54.026Z,42.17
2023-03-18T06:58:24.855Z,42.31
2023-03-18T07:01:03.020Z,42.23
2023-03-18T07:03:35.908Z,42.13
2023-03-18T07:06:09.560Z,41.69
2023-03-18T07:08:38.085Z,41.19
2023-03-18T07:11:08.168Z,40.68
2023-03-18T07:13:39.928Z,40.51
2023-03-18T07:16:14.035Z,40.26
2023-03-18T07:18:40.878Z,39.92
2023-03-18T07:21:11.253Z,39.68
2023-03-18T07:23:41.160Z,39.87
2023-03-18T07:26:11.334Z,40.01
2023-03-18T07:28:40.940Z,39.55
2023-03-18T07:31:12.952Z,39.16
2023-03-18T07:33:41.953Z,39.23
2023-03-18T07:36:10.896Z,38.81
2023-03-18T07:38:37.553Z,39.19
2023-03-18T07:41:07.449Z,38.55
2023-03-18T07:43:35.185Z,38.37
2023-03-18T07:46:01.935Z,37.96
2023-03-18T07:48:28.655Z,37.81
2023-03-18T07:50:59.814Z,37.64
2023-03-18T07:53:27.740Z,36.98
2023-03-18T07:55:57.492Z,37.52
2023-03-18T07:58:24.650Z,37.41
2023-03-18T08:00:55.982Z,37.32
2023-03-18T08:03:22.714Z,37.62
2023-03-18T08:05:49.906Z,37.21
2023-03-18T08:08:18.878Z,37.27
2023-03-18T08:10:51.423Z,37.18
2023-03-18T08:13:21.026Z,37.19
2023-03-18T08:15:48.741Z,36.97
2023-03-18T08:18:18.052Z,36.92
2023-03-18T08:20:45.089Z,36.35
2023-03-18T08:23:13.424Z,37.03
2023-03-18T08:25:44.772Z,36.72
2023-03-18T08:28:16.634Z,36.03
2023-03-18T08:30:43.501Z,35.89
2023-03-18T08:33:10.489Z,35.58
2023-03-18T08:35:37.162Z,35.78
2023-03-18T08:38:04.259Z,35.56
2023-03-18T08:40:34.921Z,35.28
2023-03-18T08:43:04.464Z,34.97
2023-03-18T08:45:34.057Z,35.31
2023-03-18T08:48:00.872Z,34.36
2023-03-18T08:50:30.045Z,34.93
2023-03-18T08:53:00.685Z,35.27
2023-03-18T08:55:35.147Z,34.79
2023-03-18T08:58:02.075Z,34.45
2023-03-18T09:00:33.145Z,33.50
2023-03-18T09:02:59.888Z,33.61
2023-03-18T09:05:26.805Z,31.79
2023-03-18T09:07:55.738Z,32.37
2023-03-18T09:10:22.502Z,32.60
2023-03-18T09:12:52.823Z,31.81
2023-03-18T09:15:24.785Z,31.83
2023-03-18T09:18:10.010Z,30.90
2023-03-18T09:20:39.052Z,31.24
2023-03-18T09:23:08.954Z,30.63
2023-03-18T09:25:35.567Z,30.99
2023-03-18T09:28:03.376Z,31.24
2023-03-18T09:30:32.639Z,31.91
2023-03-18T09:33:07.785Z,32.57
2023-03-18T09:35:35.770Z,32.29
2023-03-18T09:38:02.667Z,31.73
2023-03-18T09:40:33.159Z,30.94
2023-03-18T09:43:02.531Z,31.36
2023-03-18T09:45:34.536Z,31.30
2023-03-18T09:48:07.462Z,30.78
2023-03-18T09:50:42.558Z,30.64
2023-03-18T09:53:32.739Z,30.81
2023-03-18T09:56:01.881Z,30.29
2023-03-18T09:58:28.724Z,30.04
2023-03-18T10:01:06.557Z,29.53
2023-03-18T10:03:45.030Z,29.96
2023-03-18T10:06:18.092Z,30.10
2023-03-18T10:08:57.507Z,29.10
2023-03-18T10:11:35.857Z,29.86
2023-03-18T10:14:08.894Z,29.42
2023-03-18T10:16:47.143Z,29.44
2023-03-18T10:19:19.356Z,29.04
2023-03-18T10:22:01.496Z,28.85
2023-03-18T10:24:34.143Z,28.53
2023-03-18T10:27:15.784Z,28.52
2023-03-18T10:30:01.801Z,28.41
2023-03-18T10:32:48.567Z,28.46
2023-03-18T10:35:19.009Z,28.33
2023-03-18T10:37:52.096Z,27.40
2023-03-18T10:40:22.338Z,27.54
2023-03-18T10:42:51.837Z,27.37
2023-03-18T10:45:25.472Z,27.79
2023-03-18T10:48:08.991Z,27.77
2023-03-18T10:51:04.984Z,27.26
2023-03-18T10:53:36.802Z,27.97
2023-03-18T10:56:07.781Z,27.27
2023-03-18T10:58:34.531Z,26.99
2023-03-18T11:01:04.844Z,27.01
2023-03-18T11:03:43.708Z,26.48
2023-03-18T11:06:16.517Z,24.93
2023-03-18T11:08:47.426Z,26.31
2023-03-18T11:11:21.761Z,26.40
2023-03-18T11:13:55.912Z,25.54
2023-03-18T11:16:24.190Z,24.96
2023-03-18T11:18:57.538Z,24.71
2023-03-18T11:21:26.209Z,25.08
2023-03-18T11:24:10.910Z,25.15
2023-03-18T11:26:48.115Z,25.79
2023-03-18T11:29:22.342Z,24.76
2023-03-18T11:31:58.587Z,25.44
2023-03-18T11:34:28.250Z,25.65
2023-03-18T11:37:07.430Z,25.25
2023-03-18T11:39:41.492Z,25.24
2023-03-18T11:42:18.981Z,25.12
2023-03-18T11:44:50.208Z,24.92
2023-03-18T11:47:22.570Z,24.51
2023-03-18T11:49:54.600Z,24.08
2023-03-18T11:52:24.335Z,24.34
2023-03-18T11:55:14.268Z,24.25
2023-03-18T11:58:00.354Z,24.55
2023-03-18T12:00:27.521Z,23.27
2023-03-18T12:03:23.070Z,24.18
2023-03-18T12:06:05.485Z,24.03
2023-03-18T12:08:35.353Z,23.62
2023-03-18T12:11:20.421Z,23.46
2023-03-18T12:13:56.837Z,23.43
2023-03-18T12:16:42.921Z,23.58
2023-03-18T12:19:14.933Z,22.85
2023-03-18T12:22:00.497Z,23.56
2023-03-18T12:24:30.448Z,23.32
2023-03-18T12:27:09.857Z,23.41
2023-03-18T12:29:41.037Z,23.31
2023-03-18T12:32:07.998Z,22.54
2023-03-18T12:34:42.400Z,23.05
2023-03-18T12:37:17.222Z,23.18
2023-03-18T12:40:12.727Z,22.81
2023-03-18T12:42:47.877Z,23.73
2023-03-18T12:45:17.238Z,23.19
2023-03-18T12:47:45.051Z,22.11
2023-03-18T12:50:15.320Z,21.90
2023-03-18T12:52:49.308Z,22.28
2023-03-18T12:55:23.603Z,22.73
2023-03-18T12:57:56.267Z,22.37
2023-03-18T13:00:37.880Z,22.21
2023-03-18T13:03:24.676Z,22.17
2023-03-18T13:05:59.977Z,22.03
2023-03-18T13:08:45.657Z,21.90
2023-03-18T13:11:38.721Z,21.54
2023-03-18T13:14:07.533Z,21.22
2023-03-18T13:16:35.005Z,21.24
2023-03-18T13:19:03.487Z,21.46
2023-03-18T13:21:31.597Z,21.71
2023-03-18T13:24:04.353Z,21.46
2023-03-18T13:26:33.210Z,22.32
2023-03-18T13:29:19.085Z,22.18
2023-03-18T13:31:57.302Z,21.45
2023-03-18T13:34:34.078Z,20.94
2023-03-18T13:37:00.988Z,20.35
2023-03-18T13:39:46.645Z,20.99
2023-03-18T13:42:17.021Z,21.02
2023-03-18T13:44:47.319Z,20.68
2023-03-18T13:47:20.156Z,20.09
2023-03-18T13:49:47.073Z,20.12
2023-03-18T13:52:26.000Z,20.64
2023-03-18T13:54:55.061Z,20.72
2023-03-18T13:57:24.942Z,21.66
2023-03-18T13:59:51.633Z,21.65
2023-03-18T14:02:31.565Z,21.95
2023-03-18T14:04:59.672Z,21.89
2023-03-18T14:07:26.389Z,22.70
2023-03-18T14:10:17.927Z,23.25
2023-03-18T14:12:50.661Z,23.86
2023-03-18T14:15:26.594Z,23.46
2023-03-18T14:17:58.214Z,22.81
2023-03-18T14:20:26.128Z,22.07
2023-03-18T14:22:59.735Z,20.68
2023-03-18T14:25:42.373Z,19.91
2023-03-18T14:28:11.278Z,19.36
2023-03-18T14:30:43.020Z,19.47
2023-03-18T14:33:19.160Z,20.29
2023-03-18T14:35:48.827Z,20.83
2023-03-18T14:38:18.460Z,20.85
2023-03-18T14:40:48.809Z,21.10
2023-03-18T14:43:19.321Z,21.34
2023-03-18T14:45:51.281Z,21.47
2023-03-18T14:48:21.791Z,21.62
2023-03-18T14:50:52.208Z,21.13
2023-03-18T14:53:20.840Z,20.74
2023-03-18T14:55:48.200Z,20.44
2023-03-18T14:58:19.007Z,20.40
2023-03-18T15:00:46.668Z,19.42
2023-03-18T15:03:20.090Z,19.37
2023-03-18T15:05:46.692Z,19.47
2023-03-18T15:08:17.907Z,20.06
2023-03-18T15:10:49.778Z,19.67
2023-03-18T15:13:18.036Z,19.33
2023-03-18T15:15:44.686Z,19.15
2023-03-18T15:18:17.699Z,19.76
2023-03-18T15:20:51.219Z,19.67
2023-03-18T15:23:21.796Z,19.30
2023-03-18T15:25:49.328Z,19.91
2023-03-18T15:28:19.041Z,20.12
2023-03-18T15:30:54.311Z,19.70
2023-03-18T15:33:22.800Z,20.02
2023-03-18T15:36:03.487Z,20.16
2023-03-18T15:38:31.089Z,20.47
2023-03-18T15:41:00.062Z,20.54
2023-03-18T15:43:46.016Z,21.33
2023-03-18T15:46:27.227Z,21.66
2023-03-18T15:48:56.925Z,21.46
2023-03-18T15:51:35.458Z,22.18
2023-03-18T15:54:09.279Z,22.48
2023-03-18T15:56:38.135Z,22.26
2023-03-18T15:59:15.961Z,22.47
2023-03-18T16:01:42.693Z,22.11
2023-03-18T16:04:12.852Z,22.05
2023-03-18T16:06:40.541Z,22.22
2023-03-18T16:09:25.399Z,22.51
2023-03-18T16:11:52.093Z,22.90
2023-03-18T16:14:19.423Z,22.90
2023-03-18T16:16:46.316Z,22.07
2023-03-18T16:19:19.348Z,22.86
2023-03-18T16:21:45.967Z,23.30
2023-03-18T16:24:12.554Z,23.33
2023-03-18T16:26:39.706Z,23.27
2023-03-18T16:29:12.319Z,23.04
2023-03-18T16:31:41.552Z,23.27
2023-03-18T16:34:15.246Z,23.33
2023-03-18T16:36:42.550Z,24.44
2023-03-18T16:39:19.147Z,25.07
2023-03-18T16:41:46.090Z,25.48
2023-03-18T16:44:21.223Z,26.17
2023-03-18T16:46:52.399Z,26.72
2023-03-18T16:49:31.918Z,27.08
2023-03-18T16:52:01.843Z,27.33
2023-03-18T16:54:29.463Z,27.83
2023-03-18T16:56:58.082Z,28.26
2023-03-18T16:59:33.793Z,28.49
2023-03-18T17:02:04.321Z,28.49
2023-03-18T17:04:34.330Z,29.84
2023-03-18T17:07:01.860Z,29.34
2023-03-18T17:09:28.588Z,29.52
2023-03-18T17:11:59.270Z,30.16
2023-03-18T17:14:30.645Z,30.65
2023-03-18T17:16:58.137Z,30.28
2023-03-18T17:19:25.790Z,29.79
2023-03-18T17:21:57.011Z,30.28
2023-03-18T17:24:23.728Z,30.34
2023-03-18T17:26:50.815Z,30.65
2023-03-18T17:29:24.483Z,30.50
2023-03-18T17:31:56.562Z,30.54
2023-03-18T17:34:24.124Z,30.43
2023-03-18T17:36:50.810Z,30.79
2023-03-18T17:39:17.689Z,31.29
2023-03-18T17:41:44.308Z,31.26
2023-03-18T17:44:24.021Z,31.27
2023-03-18T17:46:56.094Z,31.36
2023-03-18T17:49:27.076Z,31.51
2023-03-18T17:51:54.283Z,31.89
2023-03-18T17:54:24.360Z,31.73
2023-03-18T17:56:53.567Z,32.33
2023-03-18T17:59:20.495Z,32.42
2023-03-18T18:01:47.902Z,32.38
2023-03-18T18:04:20.846Z,32.95
2023-03-18T18:06:49.727Z,32.61
2023-03-18T18:09:16.559Z,32.76
2023-03-18T18:11:46.955Z,33.26
2023-03-18T18:14:13.565Z,33.45
2023-03-18T18:16:40.785Z,33.51
2023-03-18T18:19:08.817Z,33.60
2023-03-18T18:21:35.490Z,33.58
2023-03-18T18:24:02.969Z,34.18
2023-03-18T18:26:32.035Z,34.43
2023-03-18T18:28:58.712Z,34.56
2023-03-18T18:31:27.633Z,34.74
2023-03-18T18:33:56.814Z,35.34
2023-03-18T18:36:28.176Z,35.48
2023-03-18T18:38:55.082Z,35.23
2023-03-18T18:41:21.790Z,35.30
2023-03-18T18:43:48.385Z,35.72
2023-03-18T18:46:15.323Z,36.36
2023-03-18T18:48:45.082Z,36.58
2023-03-18T18:51:18.477Z,37.01
2023-03-18T18:53:47.531Z,36.58
2023-03-18T18:56:20.849Z,37.22
2023-03-18T18:58:47.792Z,36.78
2023-03-18T19:01:15.176Z,37.49
2023-03-18T19:03:42.048Z,36.89
2023-03-18T19:06:18.886Z,37.50
2023-03-18T19:08:45.502Z,37.45
2023-03-18T19:11:12.250Z,37.17
2023-03-18T19:13:42.088Z,37.48
2023-03-18T19:16:35.133Z,37.67
2023-03-18T19:19:03.106Z,38.04
2023-03-18T19:21:32.670Z,38.82
2023-03-18T19:23:59.263Z,38.31
2023-03-18T19:26:25.976Z,37.92
2023-03-18T19:28:58.979Z,38.12
2023-03-18T19:31:30.818Z,38.02
2023-03-18T19:33:59.109Z,39.07
2023-03-18T19:36:37.283Z,39.01
2023-03-18T19:39:04.525Z,38.91
2023-03-18T19:41:31.260Z,38.63
2023-03-18T19:43:58.609Z,39.53
2023-03-18T19:46:31.591Z,39.29
2023-03-18T19:49:00.978Z,39.33
2023-03-18T19:51:27.724Z,40.22
2023-03-18T19:53:56.988Z,39.69
2023-03-18T19:56:24.742Z,39.64
2023-03-18T19:58:54.883Z,40.09
2023-03-18T20:01:22.178Z,39.42
2023-03-18T20:03:52.344Z,40.26
2023-03-18T20:06:19.030Z,40.31
2023-03-18T20:08:45.928Z,40.24
2023-03-18T20:11:15.594Z,40.77
2023-03-18T20:13:42.513Z,40.33
2023-03-18T20:16:13.103Z,40.67
2023-03-18T20:18:39.919Z,40.47
2023-03-18T20:21:06.810Z,41.21
2023-03-18T20:23:33.380Z,41.74
2023-03-18T20:25:59.998Z,41.72
2023-03-18T20:28:29.812Z,41.88
2023-03-18T20:31:01.863Z,41.89
2023-03-18T20:33:28.607Z,41.55
2023-03-18T20:35:57.671Z,41.63
2023-03-18T20:38:33.535Z,42.23
2023-03-18T20:41:00.510Z,42.11
2023-03-18T20:43:28.396Z,41.78
2023-03-18T20:45:56.156Z,42.23
2023-03-18T20:48:22.916Z,42.59
2023-03-18T20:50:52.018Z,42.63
2023-03-18T20:53:20.153Z,42.41
2023-03-18T20:55:49.728Z,42.29
2023-03-18T20:58:20.443Z,42.39
2023-03-18T21:00:47.325Z,41.89
2023-03-18T21:03:24.562Z,42.36
2023-03-18T21:05:56.746Z,42.71
2023-03-18T21:08:23.806Z,41.87
2023-03-18T21:10:51.157Z,42.12
2023-03-18T21:13:33.790Z,42.85
2023-03-18T21:16:06.415Z,42.94
2023-03-18T21:18:33.361Z,42.89
2023-03-18T21:21:01.127Z,43.81
2023-03-18T21:23:32.709Z,43.74
2023-03-18T21:26:02.064Z,44.00
2023-03-18T21:28:29.074Z,44.09
2023-03-18T21:31:01.136Z,44.54
2023-03-18T21:33:28.954Z,44.07
2023-03-18T21:36:01.270Z,43.75
2023-03-18T21:38:31.738Z,43.99
2023-03-18T21:40:58.983Z,43.97
2023-03-18T21:43:40.449Z,44.20
2023-03-18T21:46:09.673Z,43.61
2023-03-18T21:48:39.009Z,43.41
2023-03-18T21:51:08.702Z,43.72
2023-03-18T21:53:35.320Z,44.10
2023-03-18T21:56:01.906Z,43.58
2023-03-18T21:58:30.835Z,43.67
2023-03-18T22:00:58.305Z,43.54
2023-03-18T22:03:25.823Z,43.63
2023-03-18T22:05:52.794Z,43.07
2023-03-18T22:08:19.809Z,44.17
2023-03-18T22:10:46.979Z,44.19
2023-03-18T22:13:23.659Z,43.85
2023-03-18T22:15:53.671Z,43.95
2023-03-18T22:18:25.101Z,43.67
2023-03-18T22:20:54.446Z,44.21
2023-03-18T22:23:27.288Z,44.80
2023-03-18T22:25:56.699Z,44.62
2023-03-18T22:28:24.208Z,44.51
2023-03-18T22:30:52.145Z,44.61
2023-03-18T22:33:22.180Z,44.52
2023-03-18T22:35:49.119Z,45.01
2023-03-18T22:38:16.917Z,45.31
2023-03-18T22:40:43.860Z,45.30
2023-03-18T22:43:36.814Z,45.53
2023-03-18T22:46:09.299Z,45.33
2023-03-18T22:48:35.937Z,46.01
2023-03-18T22:51:02.574Z,44.98
2023-03-18T22:53:32.905Z,45.38
2023-03-18T22:56:01.411Z,45.66
2023-03-18T22:58:28.188Z,46.12
2023-03-18T23:00:55.236Z,45.50
2023-03-18T23:03:23.017Z,45.55
2023-03-18T23:05:53.309Z,45.46
2023-03-18T23:08:20.458Z,45.10
2023-03-18T23:10:48.005Z,45.22
2023-03-18T23:13:18.188Z,45.49
2023-03-18T23:15:52.580Z,45.36
2023-03-18T23:18:19.271Z,45.85
2023-03-18T23:20:51.252Z,45.92
2023-03-18T23:23:18.256Z,46.10
2023-03-18T23:25:45.410Z,45.89
2023-03-18T23:28:12.286Z,46.04
2023-03-18T23:30:42.354Z,45.67
2023-03-18T23:33:12.366Z,45.75
2023-03-18T23:35:41.946Z,45.98
2023-03-18T23:38:11.280Z,46.62
2023-03-18T23:40:40.652Z,46.37
2023-03-18T23:43:09.980Z,46.14
2023-03-18T23:45:37.347Z,46.38
2023-03-18T23:48:04.906Z,46.32
2023-03-18T23:50:34.297Z,46.11
2023-03-18T23:53:03.392Z,46.49
2023-03-18T23:55:35.164Z,46.53
2023-03-18T23:58:03.162Z,46.11
